Time;durP1;ratioP1;P1;durP2;ratioP2;P2;SDS_P1;SDS_P2;PMS_P1;PMS_P2;Temp;Humidity;BMP_temperature;BMP_pressure;BME280_temperature;BME280_humidity;BME280_pressure;Samples;Min_cycle;Max_cycle;Signal;HPM_P1;HPM_P2
2022/04/11 00:01:00;;;;;;;;;9.50;9.25;;;;;9.36;54.71;101004.28;5071962;28;46618;-84
2022/04/11 00:03:26;;;;;;;;;11.50;11.00;;;;;9.16;54.84;100975.47;5072573;28;45617;-85
2022/04/11 00:05:51;;;;;;;;;10.75;10.00;;;;;9.17;54.82;100972.03;5070379;28;45204;-82
2022/04/11 00:08:19;;;;;;;;;10.67;9.00;;;;;9.12;54.67;100972.66;5070153;28;45246;-83
2022/04/11 00:10:45;;;;;;;;;10.00;10.00;;;;;9.29;54.76;101000.50;5070837;28;46008;-82
2022/04/11 00:13:10;;;;;;;;;9.25;9.00;;;;;9.07;55.15;100961.97;5071992;28;45128;-84
2022/04/11 00:15:38;;;;;;;;;15.00;12.00;;;;;9.13;55.10;100977.97;5071808;28;45127;-83
2022/04/11 00:18:04;;;;;;;;;10.00;10.00;;;;;9.08;55.07;100966.38;5070753;28;44993;-83
2022/04/11 00:20:30;;;;;;;;;10.00;9.00;;;;;9.15;55.25;100978.91;5068102;28;45323;-84
2022/04/11 00:22:55;;;;;;;;;11.25;9.50;;;;;8.85;55.35;100927.75;5071141;28;45068;-84
2022/04/11 00:25:21;;;;;;;;;12.50;11.00;;;;;9.14;55.40;100982.38;5071027;28;45103;-83
2022/04/11 00:27:46;;;;;;;;;10.75;10.00;;;;;8.84;55.04;100929.47;5069335;28;45242;-84
2022/04/11 00:30:12;;;;;;;;;10.00;9.00;;;;;9.16;55.40;100974.56;5071427;28;46126;-84
2022/04/11 00:32:44;;;;;;;;;10.50;10.25;;;;;9.01;55.67;100959.97;5070192;28;45963;-84
2022/04/11 00:35:10;;;;;;;;;9.75;9.50;;;;;9.00;55.31;100952.03;5069387;28;45187;-85
2022/04/11 00:37:37;;;;;;;;;9.25;8.00;;;;;8.78;55.47;100906.53;5069354;28;45206;-85
2022/04/11 00:40:04;;;;;;;;;12.50;11.00;;;;;9.08;55.73;100955.88;5066654;28;46147;-83
2022/04/11 00:42:30;;;;;;;;;10.50;10.50;;;;;8.70;55.66;100894.78;5051656;28;45649;-85
2022/04/11 00:44:56;;;;;;;;;11.00;9.00;;;;;8.86;55.64;100917.31;5056995;28;45426;-84
2022/04/11 00:47:22;;;;;;;;;7.50;7.25;;;;;8.78;56.00;100914.38;5061227;28;45142;-84
2022/04/11 00:49:47;;;;;;;;;10.25;9.00;;;;;8.66;56.21;100887.63;5060098;28;45155;-85
2022/04/11 00:52:15;;;;;;;;;10.50;10.00;;;;;8.85;56.31;100917.28;5071023;28;45094;-84
2022/04/11 00:54:42;;;;;;;;;7.75;7.25;;;;;8.74;56.12;100896.72;5067354;28;45257;-85
2022/04/11 00:57:09;;;;;;;;;10.00;9.00;;;;;8.86;56.03;100924.28;5068946;28;45255;-85
2022/04/11 00:59:35;;;;;;;;;10.00;10.00;;;;;8.67;56.06;100894.69;5070942;28;45771;-85
2022/04/11 01:02:04;;;;;;;;;10.00;10.00;;;;;8.70;55.91;100889.56;5068011;28;45256;-84
2022/04/11 01:04:30;;;;;;;;;8.50;8.50;;;;;8.84;56.43;100912.88;5070356;28;45202;-84
2022/04/11 01:06:56;;;;;;;;;8.00;7.50;;;;;8.86;56.33;100912.09;5070921;28;45165;-85
2022/04/11 01:09:25;;;;;;;;;8.25;8.25;;;;;8.67;56.50;100883.28;5070840;28;45261;-84
2022/04/11 01:11:53;;;;;;;;;10.75;10.00;;;;;8.48;56.55;100855.38;5069518;28;45391;-84
2022/04/11 01:14:20;;;;;;;;;7.50;7.50;;;;;8.75;56.96;100901.13;5070198;28;45224;-84
2022/04/11 01:16:49;;;;;;;;;9.75;9.25;;;;;8.52;56.71;100844.19;5070000;28;44942;-84
2022/04/11 01:19:15;;;;;;;;;9.00;8.50;;;;;8.58;56.69;100861.94;5069833;28;45145;-84
2022/04/11 01:21:45;;;;;;;;;9.25;9.00;;;;;8.35;56.53;100818.97;5068583;28;45263;-84
2022/04/11 01:24:10;;;;;;;;;9.00;9.00;;;;;8.48;56.92;100835.34;5070777;28;45193;-85
2022/04/11 01:26:37;;;;;;;;;8.00;8.00;;;;;8.54;56.88;100855.66;5067879;28;45341;-85
2022/04/11 01:29:04;;;;;;;;;8.00;7.50;;;;;8.48;57.11;100853.66;5070131;28;46085;-85
2022/04/11 01:31:32;;;;;;;;;8.50;8.00;;;;;8.28;57.34;100821.31;5066872;28;45469;-83
2022/04/11 01:33:58;;;;;;;;;7.75;7.25;;;;;8.42;57.27;100840.31;5056523;28;45119;-85
2022/04/11 01:36:23;;;;;;;;;8.25;8.00;;;;;8.16;57.05;100794.56;5068419;28;45239;-84
2022/04/11 01:38:49;;;;;;;;;6.00;6.00;;;;;8.30;57.43;100833.56;5064894;28;45077;-83
2022/04/11 01:41:14;;;;;;;;;7.00;6.50;;;;;8.33;57.40;100836.34;5065116;28;45102;-84
2022/04/11 01:43:39;;;;;;;;;7.67;7.67;;;;;8.28;57.51;100833.50;5051590;28;45012;-85
2022/04/11 01:46:04;;;;;;;;;8.75;7.00;;;;;8.31;57.62;100835.34;5068696;28;45076;-84
2022/04/11 01:48:30;;;;;;;;;8.25;8.25;;;;;8.30;57.62;100834.47;5053759;28;45947;-83
2022/04/11 01:50:55;;;;;;;;;7.00;7.00;;;;;8.03;57.87;100797.47;5064657;28;45081;-83
2022/04/11 01:53:21;;;;;;;;;8.00;7.00;;;;;7.58;57.99;100717.75;5067942;28;45081;-83
2022/04/11 01:55:46;;;;;;;;;9.50;7.75;;;;;8.02;57.87;100798.28;5052795;28;45115;-84
2022/04/11 01:58:13;;;;;;;;;8.25;8.00;;;;;8.08;57.80;100801.19;5062368;28;48015;-83
2022/04/11 02:00:39;;;;;;;;;9.00;9.00;;;;;8.25;57.91;100838.59;5061144;28;45147;-81
2022/04/11 02:03:06;;;;;;;;;7.00;6.50;;;;;8.19;58.08;100827.84;5069538;28;45358;-81
2022/04/11 02:05:32;;;;;;;;;7.25;7.25;;;;;8.21;57.76;100827.09;5068884;28;45274;-84
2022/04/11 02:07:57;;;;;;;;;8.00;7.50;;;;;8.24;57.73;100834.19;5069734;28;45279;-83
2022/04/11 02:10:23;;;;;;;;;7.00;7.00;;;;;8.15;58.02;100821.56;5068747;28;45228;-84
2022/04/11 02:12:49;;;;;;;;;2.75;2.00;;;;;8.19;57.72;100836.59;5069451;28;45142;-84
2022/04/11 02:15:15;;;;;;;;;7.00;7.00;;;;;8.08;57.72;100806.44;5068593;28;45140;-84
2022/04/11 02:17:40;;;;;;;;;7.00;6.00;;;;;8.24;57.69;100828.97;5069393;28;45413;-83
2022/04/11 02:20:07;;;;;;;;;7.75;7.00;;;;;7.84;57.61;100755.59;5069483;28;45057;-83
2022/04/11 02:22:52;;;;;;;;;5.25;5.25;;;;;8.20;57.35;100812.22;5068254;28;45156;-84
2022/04/11 02:25:19;;;;;;;;;7.00;7.00;;;;;8.25;57.55;100822.88;5069503;28;45024;-81
2022/04/11 02:27:45;;;;;;;;;7.00;7.00;;;;;8.14;57.34;100801.47;5068848;28;45231;-84
2022/04/11 02:30:12;;;;;;;;;6.00;5.25;;;;;8.24;57.66;100816.75;5069927;28;45096;-82
2022/04/11 02:32:38;;;;;;;;;7.00;7.00;;;;;8.00;57.66;100777.28;5069498;28;45355;-82
2022/04/11 02:35:05;;;;;;;;;7.25;7.25;;;;;8.19;57.42;100812.16;5069516;28;45077;-83
2022/04/11 02:37:30;;;;;;;;;7.50;6.50;;;;;7.81;57.52;100734.50;5068824;28;45745;-83
2022/04/11 02:39:56;;;;;;;;;4.00;4.00;;;;;8.23;57.16;100817.59;5069248;28;45398;-83
2022/04/11 02:42:23;;;;;;;;;7.00;6.50;;;;;8.21;57.48;100816.63;5069344;28;45413;-80
2022/04/11 02:44:49;;;;;;;;;4.50;4.50;;;;;8.12;57.25;100796.97;5069022;27;45151;-82
2022/04/11 02:47:14;;;;;;;;;5.25;4.50;;;;;7.88;57.27;100750.56;5069219;28;45228;-83
2022/04/11 02:49:39;;;;;;;;;3.25;3.00;;;;;8.20;57.53;100804.34;5068456;28;45088;-82
2022/04/11 02:52:05;;;;;;;;;7.25;7.00;;;;;7.89;57.08;100747.13;5068229;28;45060;-83
2022/04/11 02:54:31;;;;;;;;;8.00;7.00;;;;;7.94;57.03;100743.00;5068207;28;45201;-83
2022/04/11 02:56:56;;;;;;;;;4.25;4.25;;;;;8.03;57.17;100760.84;5067038;28;45926;-81
2022/04/11 02:59:21;;;;;;;;;7.33;7.00;;;;;7.88;57.24;100734.88;5083462;27;52397;-83
2022/04/11 03:01:47;;;;;;;;;7.00;6.00;;;;;8.15;57.07;100784.03;5069238;28;45177;-84
2022/04/11 03:04:12;;;;;;;;;6.25;6.25;;;;;8.14;57.40;100777.03;5069209;28;45186;-84
2022/04/11 03:06:38;;;;;;;;;8.67;5.33;;;;;7.95;57.42;100736.94;5069054;28;45402;-84
2022/04/11 03:09:03;;;;;;;;;6.00;6.00;;;;;7.95;57.05;100734.31;5069225;28;45107;-83
2022/04/11 03:11:28;;;;;;;;;5.50;5.50;;;;;7.95;57.44;100734.31;5067853;28;45469;-82
2022/04/11 03:13:54;;;;;;;;;6.67;6.67;;;;;8.01;57.00;100736.31;5067953;28;45021;-83
2022/04/11 03:16:19;;;;;;;;;4.00;4.00;;;;;7.81;57.48;100703.13;5067922;28;45577;-81
2022/04/11 03:18:44;;;;;;;;;6.67;6.00;;;;;7.98;57.24;100731.84;5068157;28;44949;-83
2022/04/11 03:21:09;;;;;;;;;4.33;4.33;;;;;7.73;57.34;100692.28;5066543;28;45445;-80
2022/04/11 03:23:35;;;;;;;;;6.67;6.00;;;;;7.96;57.15;100737.81;5068381;28;45226;-83
2022/04/11 03:26:00;;;;;;;;;6.67;6.33;;;;;7.86;57.12;100714.69;5067552;28;46010;-84
2022/04/11 03:28:26;;;;;;;;;7.00;6.00;;;;;7.85;57.19;100723.38;5070182;28;45376;-82
2022/04/11 03:30:51;;;;;;;;;6.00;4.75;;;;;7.86;57.31;100719.91;5068703;28;45143;-83
2022/04/11 03:33:16;;;;;;;;;4.00;4.00;;;;;7.85;57.23;100724.25;5072973;28;45081;-83
2022/04/11 03:35:42;;;;;;;;;6.00;5.50;;;;;7.73;56.99;100701.06;5088387;27;46167;-83
2022/04/11 03:38:07;;;;;;;;;6.75;6.75;;;;;7.76;57.31;100713.38;5089024;27;45100;-81
2022/04/11 03:40:32;;;;;;;;;4.67;4.67;;;;;7.90;57.48;100727.97;5088513;27;45027;-83
2022/04/11 03:42:58;;;;;;;;;7.50;6.75;;;;;7.77;56.77;100707.31;5089210;27;45375;-83
2022/04/11 03:45:23;;;;;;;;;6.25;4.25;;;;;7.72;57.20;100696.63;5088752;27;45690;-81
2022/04/11 03:47:49;;;;;;;;;7.75;7.50;;;;;7.78;57.40;100713.44;5088184;27;45166;-81
2022/04/11 03:50:14;;;;;;;;;5.75;5.75;;;;;7.96;57.22;100746.56;5074276;27;45138;-81
2022/04/11 03:52:40;;;;;;;;;6.75;6.00;;;;;7.78;57.18;100703.84;5068348;28;45260;-83
2022/04/11 03:55:05;;;;;;;;;7.00;7.00;;;;;7.84;57.10;100703.25;5064920;28;45943;-81
2022/04/11 03:57:31;;;;;;;;;7.25;7.25;;;;;7.70;57.15;100687.84;5067469;28;45076;-81
2022/04/11 03:59:57;;;;;;;;;5.25;5.25;;;;;7.87;57.00;100706.88;5068458;28;45178;-82
2022/04/11 04:02:22;;;;;;;;;6.25;6.25;;;;;7.70;57.10;100674.75;5069428;28;45108;-81
2022/04/11 04:04:51;;;;;;;;;5.75;5.75;;;;;7.61;57.03;100661.25;5072280;28;45319;-83
2022/04/11 04:07:16;;;;;;;;;7.25;6.25;;;;;7.79;56.99;100695.22;5071676;28;45071;-81
2022/04/11 04:09:41;;;;;;;;;6.00;6.00;;;;;7.69;57.04;100672.97;5069057;28;45304;-80
2022/04/11 04:12:07;;;;;;;;;4.00;3.67;;;;;7.54;56.90;100655.66;5072132;28;45170;-85
2022/04/11 04:14:36;;;;;;;;;4.75;4.00;;;;;7.85;56.77;100699.81;5087456;28;46574;-82
2022/04/11 04:17:02;;;;;;;;;5.00;5.00;;;;;7.88;57.25;100700.84;5071699;28;45702;-83
2022/04/11 04:19:27;;;;;;;;;4.00;4.00;;;;;7.52;57.23;100645.16;5071992;28;44952;-85
2022/04/11 04:21:52;;;;;;;;;4.67;4.67;;;;;7.70;57.05;100684.31;5071916;28;45100;-85
2022/04/11 04:24:22;;;;;;;;;6.00;6.00;;;;;7.53;56.77;100646.03;5075623;28;45308;-80
2022/04/11 04:26:48;;;;;;;;;2.00;2.00;;;;;7.78;56.88;100689.88;5062749;28;45565;-84
2022/04/11 04:29:15;;;;;;;;;6.00;6.00;;;;;7.69;56.68;100675.59;5071926;28;45158;-84
2022/04/11 04:31:40;;;;;;;;;5.75;4.00;;;;;7.55;57.26;100657.50;5087302;28;45326;-82
2022/04/11 04:34:06;;;;;;;;;5.50;5.50;;;;;7.66;56.77;100675.44;5092172;27;45720;-84
2022/04/11 04:36:32;;;;;;;;;7.00;6.25;;;;;7.57;57.02;100653.22;5086714;27;45474;-82
2022/04/11 04:38:57;;;;;;;;;4.00;4.00;;;;;7.72;56.90;100682.66;5071428;28;45421;-81
2022/04/11 04:41:23;;;;;;;;;4.00;4.00;;;;;7.65;56.93;100673.66;5070753;28;45212;-84
2022/04/11 04:43:48;;;;;;;;;7.00;7.00;;;;;7.49;56.96;100645.94;5086779;28;45307;-82
2022/04/11 04:46:13;;;;;;;;;7.00;6.00;;;;;7.54;56.87;100648.75;5089665;27;45030;-82
2022/04/11 04:48:39;;;;;;;;;6.00;4.00;;;;;7.56;56.70;100654.03;5071013;28;45055;-84
2022/04/11 04:51:04;;;;;;;;;6.33;6.00;;;;;7.62;56.63;100673.50;5069235;28;46054;-81
2022/04/11 04:53:29;;;;;;;;;7.50;7.00;;;;;7.52;56.70;100658.22;5070630;28;45866;-80
2022/04/11 04:55:55;;;;;;;;;7.00;7.00;;;;;7.34;57.28;100624.31;5070008;28;45100;-84
2022/04/11 04:58:20;;;;;;;;;3.00;3.00;;;;;7.36;56.81;100632.22;5072394;28;45167;-81
2022/04/11 05:00:45;;;;;;;;;8.00;7.50;;;;;7.41;56.95;100651.63;5070696;28;45134;-80
2022/04/11 05:03:11;;;;;;;;;7.75;6.75;;;;;7.62;57.22;100702.28;5082333;28;47114;-82
2022/04/11 05:05:36;;;;;;;;;8.50;8.00;;;;;7.21;57.11;100628.06;5068853;28;45135;-84
2022/04/11 05:08:02;;;;;;;;;7.25;7.25;;;;;7.61;56.84;100690.03;5072211;28;45237;-81
2022/04/11 05:10:27;;;;;;;;;8.75;8.50;;;;;7.38;57.38;100652.38;5070331;28;44993;-79
2022/04/11 05:12:53;;;;;;;;;10.00;9.25;;;;;7.54;57.05;100674.91;5069823;28;45890;-83
2022/04/11 05:15:18;;;;;;;;;8.00;8.00;;;;;7.52;57.31;100665.19;5071457;28;45073;-84
2022/04/11 05:17:43;;;;;;;;;7.00;7.00;;;;;7.66;57.71;100683.28;5070818;28;45219;-84
2022/04/11 05:20:10;;;;;;;;;7.25;7.25;;;;;7.62;57.10;100678.75;5070692;28;45126;-83
2022/04/11 05:22:36;;;;;;;;;7.00;7.00;;;;;7.53;56.93;100665.25;5071316;28;46139;-83
2022/04/11 05:25:02;;;;;;;;;8.00;7.75;;;;;7.70;57.23;100686.94;5070295;28;45426;-84
2022/04/11 05:27:28;;;;;;;;;8.25;7.75;;;;;7.57;57.49;100661.06;5070706;28;45351;-79
2022/04/11 05:29:53;;;;;;;;;7.00;6.00;;;;;7.71;56.86;100689.63;5055940;28;45390;-84
2022/04/11 05:32:19;;;;;;;;;7.00;7.00;;;;;7.53;57.15;100649.56;5068810;28;45360;-84
2022/04/11 05:34:44;;;;;;;;;7.50;7.50;;;;;7.44;57.12;100628.25;5058661;28;45163;-82
2022/04/11 05:37:11;;;;;;;;;7.50;7.00;;;;;7.48;57.32;100632.75;5056694;28;45461;-84
2022/04/11 05:39:36;;;;;;;;;8.25;7.75;;;;;7.47;57.23;100642.31;5069863;28;45069;-84
2022/04/11 05:42:02;;;;;;;;;7.00;7.00;;;;;7.53;57.24;100646.03;5069234;28;45227;-83
2022/04/11 05:44:27;;;;;;;;;6.50;6.25;;;;;7.41;57.80;100639.44;5069794;28;45516;-84
2022/04/11 05:46:52;;;;;;;;;9.00;8.00;;;;;7.67;57.30;100684.19;5066286;28;45211;-82
2022/04/11 05:49:22;;;;;;;;;4.00;4.00;;;;;7.72;57.93;100686.16;5067302;28;45240;-83
2022/04/11 05:51:49;;;;;;;;;8.00;7.25;;;;;7.80;57.38;100698.72;5066744;28;45333;-79
2022/04/11 05:54:15;;;;;;;;;7.50;7.50;;;;;7.74;57.76;100684.53;5064944;28;45502;-83
2022/04/11 05:56:41;;;;;;;;;7.50;6.00;;;;;7.86;57.66;100704.22;5069092;28;44931;-81
2022/04/11 05:59:08;;;;;;;;;7.00;7.00;;;;;7.28;57.53;100605.72;5068121;28;45132;-84
2022/04/11 06:01:37;;;;;;;;;5.75;5.50;;;;;7.89;57.76;100706.97;5061741;28;45949;-82
2022/04/11 06:04:03;;;;;;;;;7.00;7.00;;;;;7.85;57.62;100689.34;5063532;28;44999;-81
2022/04/11 06:06:28;;;;;;;;;7.50;6.25;;;;;7.82;57.82;100671.78;5069664;28;45322;-82
2022/04/11 06:08:53;;;;;;;;;6.67;6.67;;;;;7.78;57.60;100664.63;5069262;28;45288;-83
2022/04/11 06:11:19;;;;;;;;;9.67;7.33;;;;;7.98;57.34;100683.84;5068599;28;45216;-83
2022/04/11 06:13:47;;;;;;;;;7.75;6.00;;;;;8.07;57.36;100705.16;5068882;28;45364;-80
2022/04/11 06:16:13;;;;;;;;;8.25;7.25;;;;;7.82;57.21;100653.47;5069225;28;45298;-83
2022/04/11 06:18:38;;;;;;;;;8.00;8.00;;;;;7.73;57.26;100626.88;5069069;28;45565;-82
2022/04/11 06:21:04;;;;;;;;;9.75;7.50;;;;;7.84;57.45;100638.75;5069482;28;45553;-82
2022/04/11 06:23:29;;;;;;;;;6.75;6.50;;;;;7.93;57.14;100651.31;5068606;28;45112;-79
2022/04/11 06:25:55;;;;;;;;;6.75;6.25;;;;;8.05;56.65;100661.44;5068417;28;45552;-81
2022/04/11 06:28:20;;;;;;;;;7.75;7.25;;;;;8.03;56.82;100648.28;5057321;28;46280;-78
2022/04/11 06:30:45;;;;;;;;;8.00;8.00;;;;;8.22;56.86;100674.41;5055777;28;45074;-79
2022/04/11 06:33:11;;;;;;;;;10.50;9.00;;;;;8.30;56.31;100676.47;5058008;28;45335;-82
2022/04/11 06:35:36;;;;;;;;;8.25;8.25;;;;;8.32;57.01;100669.56;5057396;28;45195;-82
2022/04/11 06:38:01;;;;;;;;;8.00;8.00;;;;;8.23;56.40;100644.78;5059461;28;45158;-82
2022/04/11 06:40:27;;;;;;;;;8.25;7.50;;;;;8.27;56.35;100623.16;5063488;28;45677;-85
2022/04/11 06:42:52;;;;;;;;;9.00;8.00;;;;;8.51;56.49;100645.97;5062189;28;45445;-85
2022/04/11 06:45:18;;;;;;;;;10.25;10.25;;;;;8.61;55.80;100652.47;5067891;28;45467;-86
2022/04/11 06:47:44;;;;;;;;;14.75;14.00;;;;;8.42;56.20;100625.56;5066994;28;45080;-80
2022/04/11 06:50:10;;;;;;;;;9.75;9.75;;;;;8.37;56.20;100602.59;5067430;28;46800;-85
2022/04/11 06:52:35;;;;;;;;;8.00;7.00;;;;;8.55;55.81;100631.28;5065864;28;45108;-85
2022/04/11 06:55:01;;;;;;;;;8.00;7.25;;;;;8.21;56.12;100553.91;5077290;27;45581;-84
2022/04/11 06:57:26;;;;;;;;;10.00;9.33;;;;;8.75;55.79;100630.34;5061900;28;46523;-80
2022/04/11 06:59:52;;;;;;;;;7.25;7.00;;;;;8.90;55.79;100653.66;5067009;28;46224;-81
2022/04/11 07:02:21;;;;;;;;;7.75;7.00;;;;;8.93;55.24;100645.91;5066590;28;45574;-81
2022/04/11 07:04:47;;;;;;;;;7.75;7.25;;;;;8.97;55.66;100645.22;5062824;28;45213;-81
2022/04/11 07:07:12;;;;;;;;;9.25;8.75;;;;;8.64;55.43;100584.50;5075739;28;45119;-78
2022/04/11 07:09:37;;;;;;;;;7.25;7.00;;;;;8.99;55.47;100636.56;5059971;28;45118;-80
2022/04/11 07:12:03;;;;;;;;;8.25;7.75;;;;;8.85;55.33;100602.78;5063177;28;45431;-85
2022/04/11 07:14:29;;;;;;;;;5.75;5.75;;;;;8.89;55.82;100605.59;5064167;28;45258;-84
2022/04/11 07:16:54;;;;;;;;;8.00;7.25;;;;;9.09;55.57;100621.19;5068645;28;44923;-79
2022/04/11 07:19:20;;;;;;;;;7.00;7.00;;;;;8.85;55.42;100576.56;5068162;28;45409;-81
2022/04/11 07:21:46;;;;;;;;;6.00;6.00;;;;;8.87;55.42;100554.84;5065824;28;45193;-82
2022/04/11 07:24:12;;;;;;;;;10.00;9.00;;;;;9.32;55.56;100614.22;5067619;28;45236;-83
2022/04/11 07:26:37;;;;;;;;;7.25;7.25;;;;;9.26;54.78;100604.34;5067827;28;44918;-81
2022/04/11 07:29:03;;;;;;;;;7.00;5.25;;;;;9.28;54.60;100592.22;5062343;28;47483;-83
2022/04/11 07:31:29;;;;;;;;;7.00;7.00;;;;;9.10;54.99;100546.94;5058701;28;45511;-85
2022/04/11 07:33:55;;;;;;;;;9.25;8.00;;;;;9.37;54.80;100594.28;5063033;28;45352;-85
2022/04/11 07:36:20;;;;;;;;;5.50;5.50;;;;;9.44;54.42;100586.69;5067933;28;45334;-80
2022/04/11 07:38:46;;;;;;;;;8.00;8.00;;;;;9.47;55.00;100567.56;5065569;28;46669;-80
2022/04/11 07:41:11;;;;;;;;;8.25;8.00;;;;;9.63;54.81;100598.72;5070789;28;45095;-81
2022/04/11 07:43:37;;;;;;;;;9.00;9.00;;;;;9.81;54.79;100609.91;5068467;28;45186;-82
2022/04/11 07:46:05;;;;;;;;;8.00;8.00;;;;;9.80;54.37;100599.31;5069852;28;45224;-81
2022/04/11 07:48:33;;;;;;;;;8.00;8.00;;;;;9.91;54.16;100620.72;5066492;28;46479;-83
2022/04/11 07:50:59;;;;;;;;;9.50;9.50;;;;;9.70;54.10;100555.22;5068382;28;45674;-83
2022/04/11 07:53:24;;;;;;;;;10.00;8.75;;;;;10.01;53.78;100604.44;5067461;28;45083;-82
2022/04/11 07:55:50;;;;;;;;;9.00;9.00;;;;;10.01;54.15;100588.69;5070776;28;45251;-83
2022/04/11 07:58:16;;;;;;;;;6.75;6.75;;;;;10.02;53.89;100585.22;5068608;28;45304;-81
2022/04/11 08:00:42;;;;;;;;;4.75;4.75;;;;;9.64;53.78;100499.91;5068485;28;45648;-81
2022/04/11 08:03:07;;;;;;;;;9.00;7.75;;;;;10.18;53.62;100579.63;5069054;28;45369;-82
2022/04/11 08:05:33;;;;;;;;;7.75;7.00;;;;;10.22;53.70;100575.38;5059770;28;45314;-90
2022/04/11 08:07:59;;;;;;;;;7.33;5.67;;;;;10.26;53.88;100569.44;5062640;28;46014;-80
2022/04/11 08:10:25;;;;;;;;;6.00;6.00;;;;;10.33;53.78;100560.91;5068740;28;45728;-84
2022/04/11 08:12:51;;;;;;;;;5.25;5.00;;;;;10.53;53.99;100591.34;5066199;28;45667;-84
2022/04/11 08:15:16;;;;;;;;;4.75;4.00;;;;;10.54;53.89;100579.06;5061656;28;45207;-82
2022/04/11 08:17:41;;;;;;;;;9.00;8.50;;;;;10.55;53.83;100575.63;5060159;28;45311;-82
2022/04/11 08:20:07;;;;;;;;;7.67;7.00;;;;;10.41;53.63;100542.78;5060381;28;45682;-83
2022/04/11 08:22:32;;;;;;;;;8.25;8.25;;;;;10.22;53.79;100508.00;5056980;28;45616;-82
2022/04/11 08:24:58;;;;;;;;;6.75;5.50;;;;;10.57;53.91;100559.06;5068241;28;45290;-82
2022/04/11 08:27:23;;;;;;;;;8.33;8.33;;;;;10.38;54.40;100525.16;5063370;28;45832;-84
2022/04/11 08:29:48;;;;;;;;;7.33;6.33;;;;;10.50;53.76;100543.97;5058709;28;45505;-90
2022/04/11 08:32:14;;;;;;;;;6.00;6.00;;;;;10.77;53.29;100588.59;5072879;28;45084;-84
2022/04/11 08:34:39;;;;;;;;;11.25;9.25;;;;;10.83;53.26;100582.63;5068433;28;45544;-84
2022/04/11 08:37:05;;;;;;;;;9.75;9.25;;;;;10.87;53.83;100566.09;5070931;28;45843;-83
2022/04/11 08:39:30;;;;;;;;;8.25;8.25;;;;;10.13;53.76;100426.28;5070321;28;45258;-92
2022/04/11 08:42:01;;;;;;;;;9.00;8.25;;;;;10.63;53.84;100497.91;5068423;28;45182;-91
2022/04/11 08:44:27;;;;;;;;;8.00;8.00;;;;;10.58;54.14;100466.22;5073365;28;45013;-92
2022/04/11 08:46:57;;;;;;;;;9.25;6.00;;;;;10.76;54.06;100486.03;5066779;28;46935;-92
2022/04/11 08:49:23;;;;;;;;;8.25;8.00;;;;;11.01;53.40;100530.59;5066923;28;45264;-88
2022/04/11 08:51:48;;;;;;;;;9.50;7.00;;;;;10.85;53.71;100478.41;5078490;28;45150;-96
2022/04/11 08:54:15;;;;;;;;;8.00;8.00;;;;;11.11;53.75;100513.34;5069532;28;45017;-85
2022/04/11 08:56:40;;;;;;;;;6.00;5.50;;;;;11.17;52.93;100500.38;5070065;28;45928;-89
2022/04/11 08:59:05;;;;;;;;;6.00;6.00;;;;;11.16;52.56;100482.81;5071428;28;45119;-87
2022/04/11 09:01:33;;;;;;;;;6.75;5.00;;;;;11.47;53.19;100529.25;5070773;28;45131;-91
2022/04/11 09:03:59;;;;;;;;;6.25;6.25;;;;;11.19;53.27;100463.59;5064518;28;45498;-88
2022/04/11 09:06:24;;;;;;;;;6.67;6.00;;;;;11.49;53.29;100505.63;5065474;28;48075;-89
2022/04/11 09:08:52;;;;;;;;;6.75;5.00;;;;;11.31;52.82;100463.91;5072859;28;45107;-81
2022/04/11 09:11:28;;;;;;;;;5.00;5.00;;;;;11.67;53.02;100515.75;5070770;28;45178;-87
2022/04/11 09:13:53;;;;;;;;;7.25;5.50;;;;;11.68;52.89;100497.38;5069379;28;45016;-89
2022/04/11 09:16:19;;;;;;;;;6.75;5.75;;;;;11.82;52.63;100511.81;5068725;28;45175;-88
2022/04/11 09:18:55;;;;;;;;;6.75;6.00;;;;;11.79;52.56;100500.28;5071521;28;44946;-88
2022/04/11 09:21:23;;;;;;;;;7.25;6.00;;;;;11.98;52.59;100518.38;5062374;28;45079;-84
2022/04/11 09:23:49;;;;;;;;;7.00;6.75;;;;;12.05;52.69;100509.75;5065893;27;45947;-81
2022/04/11 09:26:24;;;;;;;;;6.00;6.00;;;;;12.17;52.19;100508.25;5066259;28;45250;-84
2022/04/11 09:29:00;;;;;;;;;5.00;5.00;;;;;12.26;52.21;100508.47;5068259;28;45260;-84
2022/04/11 09:31:26;;;;;;;;;8.75;7.00;;;;;12.32;52.06;100499.00;5067613;28;45286;-81
2022/04/11 09:33:51;;;;;;;;;6.75;6.75;;;;;12.21;51.97;100473.22;5068613;28;45231;-80
2022/04/11 09:36:17;;;;;;;;;4.75;4.00;;;;;12.29;51.97;100487.50;5068013;28;45834;-84
2022/04/11 09:38:42;;;;;;;;;5.00;5.00;;;;;12.34;51.85;100484.09;5061424;28;45151;-82
2022/04/11 09:41:07;;;;;;;;;5.00;4.00;;;;;11.82;51.79;100393.34;5070217;28;45057;-82
2022/04/11 09:43:34;;;;;;;;;6.25;5.25;;;;;12.62;51.59;100503.19;5070045;28;45310;-84
2022/04/11 09:46:02;;;;;;;;;6.00;5.25;;;;;12.39;51.61;100448.19;5058469;27;46383;-82
2022/04/11 09:48:32;;;;;;;;;6.00;6.00;;;;;12.70;51.14;100477.88;5061740;28;45490;-80
2022/04/11 09:51:00;;;;;;;;;7.75;7.00;;;;;12.73;51.50;100462.13;5049660;28;45114;-82
2022/04/11 09:53:34;;;;;;;;;7.75;7.75;;;;;12.65;50.98;100430.31;5052577;28;45111;-81
2022/04/11 09:56:08;;;;;;;;;15.25;13.00;;;;;12.58;51.13;100391.50;5068499;28;45635;-86
2022/04/11 09:58:35;;;;;;;;;8.00;7.00;;;;;13.18;51.20;100477.09;5064351;28;46492;-84
2022/04/11 10:01:02;;;;;;;;;7.00;7.00;;;;;13.27;50.61;100474.69;5062566;28;45689;-83
2022/04/11 10:03:29;;;;;;;;;10.25;9.50;;;;;13.33;50.64;100488.00;5062222;28;46054;-80
2022/04/11 10:05:56;;;;;;;;;6.25;6.00;;;;;13.31;50.32;100465.09;5064213;28;45976;-81
2022/04/11 10:08:24;;;;;;;;;5.00;5.00;;;;;12.97;50.75;100387.00;5065483;28;45455;-80
2022/04/11 10:10:51;;;;;;;;;5.50;5.00;;;;;13.36;50.12;100434.38;5068593;28;45191;-83
2022/04/11 10:13:16;;;;;;;;;4.50;4.50;;;;;13.72;50.04;100478.13;5069455;28;45138;-80
2022/04/11 10:15:45;;;;;;;;;3.25;3.25;;;;;13.74;50.57;100456.16;5056625;28;47469;-81
2022/04/11 10:18:15;;;;;;;;;4.00;4.00;;;;;13.70;49.66;100433.22;5060182;28;45629;-80
2022/04/11 10:20:45;;;;;;;;;4.50;4.00;;;;;14.08;49.18;100468.16;5067574;28;45281;-80
2022/04/11 10:23:13;;;;;;;;;5.00;5.00;;;;;14.17;49.30;100464.78;5069681;28;45084;-85
2022/04/11 10:25:49;;;;;;;;;5.00;5.00;;;;;14.26;49.16;100456.13;5065230;28;45767;-84
2022/04/11 10:28:25;;;;;;;;;5.00;5.00;;;;;14.05;48.77;100409.13;5057197;28;45713;-82
2022/04/11 10:31:04;;;;;;;;;4.75;4.25;;;;;14.15;48.81;100403.09;5064601;28;45347;-81
2022/04/11 10:33:42;;;;;;;;;5.25;5.25;;;;;14.52;49.16;100440.66;5065263;28;45261;-83
2022/04/11 10:36:28;;;;;;;;;5.75;5.75;;;;;14.77;48.83;100440.09;5061365;28;45812;-80
2022/04/11 10:39:15;;;;;;;;;3.50;3.00;;;;;14.89;48.86;100434.97;5060074;28;45419;-86
2022/04/11 10:42:08;;;;;;;;;6.50;5.50;;;;;14.85;48.20;100412.00;5059478;28;45282;-79
2022/04/11 10:44:45;;;;;;;;;4.00;4.00;;;;;15.02;47.94;100422.75;5060105;28;45292;-81
2022/04/11 10:47:11;;;;;;;;;5.00;5.00;;;;;15.06;47.88;100424.56;5067073;28;46085;-80
2022/04/11 10:49:48;;;;;;;;;3.00;2.00;;;;;15.12;47.52;100424.66;5064725;28;45334;-81
2022/04/11 10:52:35;;;;;;;;;5.00;4.50;;;;;15.04;47.69;100401.63;5068439;28;45190;-83
2022/04/11 10:55:05;;;;;;;;;4.00;4.00;;;;;15.28;46.97;100416.88;5067325;28;46363;-80
2022/04/11 10:57:46;;;;;;;;;4.25;4.25;;;;;15.30;46.95;100400.13;5065076;28;47613;-86
2022/04/11 11:00:27;;;;;;;;;3.00;3.00;;;;;15.31;46.93;100399.25;5064330;28;45636;-80
2022/04/11 11:02:52;;;;;;;;;4.50;4.25;;;;;15.34;47.42;100412.53;5065745;28;45071;-82
2022/04/11 11:05:30;;;;;;;;;4.50;4.50;;;;;15.35;47.47;100410.75;5066902;28;45165;-80
2022/04/11 11:08:08;;;;;;;;;4.00;4.00;;;;;15.37;47.16;100406.34;5065325;28;47767;-83
2022/04/11 11:10:40;;;;;;;;;4.25;3.75;;;;;15.41;47.37;100409.03;5066242;28;45240;-81
2022/04/11 11:13:28;;;;;;;;;4.50;4.00;;;;;15.46;48.02;100409.97;5071968;28;45131;-81
2022/04/11 11:15:54;;;;;;;;;3.00;3.00;;;;;15.10;47.77;100335.50;5070221;28;45256;-80
2022/04/11 11:18:19;;;;;;;;;4.00;4.00;;;;;15.41;47.71;100374.63;5070143;28;45915;-81
2022/04/11 11:21:03;;;;;;;;;4.00;4.00;;;;;15.57;47.40;100393.31;5072158;28;45190;-81
2022/04/11 11:23:31;;;;;;;;;4.00;4.00;;;;;15.48;46.77;100365.88;5072608;28;45036;-81
2022/04/11 11:26:11;;;;;;;;;3.00;3.00;;;;;15.81;47.56;100421.78;5071905;28;45091;-81
2022/04/11 11:28:40;;;;;;;;;4.25;4.00;;;;;15.54;47.94;100354.44;5071504;28;46115;-82